Time;durP1;ratioP1;P1;durP2;ratioP2;P2;SDS_P1;SDS_P2;PMS_P1;PMS_P2;Temp;Humidity;BMP_temperature;BMP_pressure;BME280_temperature;BME280_humidity;BME280_pressure;Samples;Min_cycle;Max_cycle;Signal;HPM_P1;HPM_P2
2022/01/09 00:00:08;;;;;;;8.10;3.22;;;;;;;;;;5012438;28;20057;-57
2022/01/09 00:02:35;;;;;;;8.68;3.45;;;;;;;;;;5012401;28;20042;-57
2022/01/09 00:05:02;;;;;;;6.05;2.80;;;;;;;;;;5012703;28;20054;-57
2022/01/09 00:07:29;;;;;;;8.57;3.55;;;;;;;;;;5012185;28;20045;-56
2022/01/09 00:09:57;;;;;;;6.68;2.78;;;;;;;;;;5012415;28;20054;-59
2022/01/09 00:12:25;;;;;;;7.90;3.47;;;;;;;;;;5012529;28;20472;-59
2022/01/09 00:14:53;;;;;;;6.97;3.42;;;;;;;;;;5012300;28;20141;-59
2022/01/09 00:17:20;;;;;;;9.73;3.90;;;;;;;;;;5012151;28;20462;-59
2022/01/09 00:19:47;;;;;;;6.75;3.20;;;;;;;;;;5012048;28;20486;-57
2022/01/09 00:22:15;;;;;;;8.20;3.58;;;;;;;;;;5012222;28;20420;-57
2022/01/09 00:24:42;;;;;;;6.97;3.15;;;;;;;;;;5014181;28;20054;-57
2022/01/09 00:27:09;;;;;;;9.70;3.70;;;;;;;;;;5015910;28;20050;-58
2022/01/09 00:29:37;;;;;;;10.88;4.95;;;;;;;;;;5016183;28;20061;-57
2022/01/09 00:32:04;;;;;;;8.18;4.38;;;;;;;;;;5016519;28;20054;-56
2022/01/09 00:34:31;;;;;;;8.48;4.75;;;;;;;;;;5016310;28;20387;-57
2022/01/09 00:36:58;;;;;;;7.70;4.00;;;;;;;;;;5016228;28;20045;-57
2022/01/09 00:39:25;;;;;;;9.93;2.92;;;;;;;;;;5016170;28;20053;-58
2022/01/09 00:41:52;;;;;;;6.95;2.58;;;;;;;;;;5016009;28;20495;-57
2022/01/09 00:44:19;;;;;;;4.50;2.70;;;;;;;;;;5016008;28;20057;-56
2022/01/09 00:46:47;;;;;;;7.45;3.60;;;;;;;;;;5015686;28;20081;-56
2022/01/09 00:49:14;;;;;;;6.25;3.25;;;;;;;;;;5015839;28;20053;-57
2022/01/09 00:51:41;;;;;;;6.32;2.72;;;;;;;;;;5015850;28;20056;-57
2022/01/09 00:54:08;;;;;;;7.38;3.00;;;;;;;;;;5015562;28;20054;-55
2022/01/09 00:56:34;;;;;;;5.72;3.28;;;;;;;;;;5015646;28;20053;-56
2022/01/09 00:59:01;;;;;;;9.30;3.17;;;;;;;;;;5015936;28;20054;-59
2022/01/09 01:01:28;;;;;;;6.57;3.03;;;;;;;;;;5015589;28;20046;-56
2022/01/09 01:03:56;;;;;;;9.52;3.17;;;;;;;;;;5015659;28;20300;-56
2022/01/09 01:06:23;;;;;;;7.25;2.88;;;;;;;;;;5015554;28;20491;-57
2022/01/09 01:08:50;;;;;;;7.28;3.17;;;;;;;;;;5016057;28;20463;-56
2022/01/09 01:11:17;;;;;;;9.02;3.00;;;;;;;;;;5015468;28;20046;-57
2022/01/09 01:13:44;;;;;;;5.75;2.90;;;;;;;;;;5015292;28;20419;-57
2022/01/09 01:16:11;;;;;;;6.85;3.22;;;;;;;;;;5015681;28;20054;-55
2022/01/09 01:18:38;;;;;;;9.50;3.65;;;;;;;;;;5015119;28;20050;-57
2022/01/09 01:21:06;;;;;;;10.13;3.90;;;;;;;;;;5015202;28;20096;-56
2022/01/09 01:23:33;;;;;;;8.38;3.25;;;;;;;;;;5015091;28;20395;-57
2022/01/09 01:26:01;;;;;;;9.60;3.58;;;;;;;;;;5015074;28;20053;-58
2022/01/09 01:28:29;;;;;;;9.55;3.97;;;;;;;;;;5014995;28;20057;-58
2022/01/09 01:30:56;;;;;;;6.93;3.17;;;;;;;;;;5014879;28;20059;-57
2022/01/09 01:33:23;;;;;;;7.65;3.00;;;;;;;;;;5015048;28;20057;-56
2022/01/09 01:35:50;;;;;;;7.07;3.22;;;;;;;;;;5014727;28;20387;-58
2022/01/09 01:38:19;;;;;;;7.72;3.75;;;;;;;;;;5014886;28;20065;-57
2022/01/09 01:40:46;;;;;;;8.50;3.70;;;;;;;;;;5014705;28;20049;-58
2022/01/09 01:43:13;;;;;;;7.18;3.45;;;;;;;;;;5014498;28;20057;-58
2022/01/09 01:45:40;;;;;;;7.35;3.30;;;;;;;;;;5014887;28;20068;-58
2022/01/09 01:48:07;;;;;;;8.80;3.30;;;;;;;;;;5014521;28;20457;-58
2022/01/09 01:50:37;;;;;;;8.18;3.90;;;;;;;;;;5014630;28;20093;-59
2022/01/09 01:53:05;;;;;;;6.65;3.45;;;;;;;;;;5014797;28;20463;-56
2022/01/09 01:55:36;;;;;;;7.28;3.53;;;;;;;;;;5014501;28;20089;-57
2022/01/09 01:58:04;;;;;;;7.55;4.07;;;;;;;;;;5014424;28;20061;-58
2022/01/09 02:00:31;;;;;;;6.65;3.30;;;;;;;;;;5014624;28;20088;-55
2022/01/09 02:02:58;;;;;;;7.60;3.22;;;;;;;;;;5013477;23;20053;-64
2022/01/09 02:05:25;;;;;;;6.97;3.85;;;;;;;;;;4994758;28;20487;-64
2022/01/09 02:07:53;;;;;;;6.75;3.90;;;;;;;;;;4994302;28;20479;-64
2022/01/09 02:10:20;;;;;;;6.95;3.17;;;;;;;;;;4994521;28;20443;-64
2022/01/09 02:12:50;;;;;;;9.13;3.78;;;;;;;;;;4994390;28;20047;-64
2022/01/09 02:15:27;;;;;;;7.80;3.30;;;;;;;;;;4994956;28;20062;-64
2022/01/09 02:17:54;;;;;;;10.98;3.20;;;;;;;;;;4994196;28;20046;-64
2022/01/09 02:20:23;;;;;;;10.70;3.58;;;;;;;;;;4994409;28;20046;-64
2022/01/09 02:22:50;;;;;;;7.35;3.50;;;;;;;;;;4994197;28;20054;-64
2022/01/09 02:25:17;;;;;;;11.45;3.65;;;;;;;;;;4994398;28;20058;-64
2022/01/09 02:27:44;;;;;;;8.95;2.95;;;;;;;;;;4994259;28;20407;-64
2022/01/09 02:30:11;;;;;;;6.38;2.88;;;;;;;;;;4994262;28;20054;-64
2022/01/09 02:32:38;;;;;;;7.90;3.08;;;;;;;;;;4994062;28;20051;-64
2022/01/09 02:35:06;;;;;;;6.95;2.65;;;;;;;;;;4994205;28;20053;-63
2022/01/09 02:37:34;;;;;;;5.63;2.17;;;;;;;;;;4993985;28;20077;-64
2022/01/09 02:40:01;;;;;;;5.15;2.42;;;;;;;;;;4993876;28;20054;-64
2022/01/09 02:42:30;;;;;;;5.90;2.40;;;;;;;;;;4993980;28;20047;-63
2022/01/09 02:44:58;;;;;;;5.47;2.00;;;;;;;;;;4994311;28;20093;-64
2022/01/09 02:47:28;;;;;;;4.32;2.08;;;;;;;;;;4993226;28;20130;-64
2022/01/09 02:49:56;;;;;;;5.45;2.22;;;;;;;;;;4994110;28;20310;-64
2022/01/09 02:52:31;;;;;;;3.38;1.55;;;;;;;;;;4993901;28;20054;-64
2022/01/09 02:55:10;;;;;;;5.80;2.47;;;;;;;;;;4993997;28;20054;-64
2022/01/09 02:57:38;;;;;;;4.05;1.95;;;;;;;;;;4993635;28;20412;-64
2022/01/09 03:00:07;;;;;;;5.45;1.90;;;;;;;;;;4993877;28;20054;-64
2022/01/09 03:02:34;;;;;;;5.35;1.85;;;;;;;;;;4993351;28;20566;-64
2022/01/09 03:05:00;;;;;;;3.67;1.60;;;;;;;;;;4993788;28;20452;-64
2022/01/09 03:07:27;;;;;;;6.78;1.88;;;;;;;;;;4993389;28;20042;-64
2022/01/09 03:09:54;;;;;;;4.03;1.65;;;;;;;;;;4993581;28;20054;-63
2022/01/09 03:12:23;;;;;;;5.90;1.73;;;;;;;;;;4993374;28;20061;-64
2022/01/09 03:14:50;;;;;;;4.38;1.70;;;;;;;;;;4993253;28;20068;-63
2022/01/09 03:17:20;;;;;;;4.53;1.77;;;;;;;;;;4993094;28;20046;-64
2022/01/09 03:19:47;;;;;;;3.30;1.55;;;;;;;;;;4993566;28;20057;-63
2022/01/09 03:22:14;;;;;;;3.60;1.20;;;;;;;;;;4993368;28;20050;-64
2022/01/09 03:24:42;;;;;;;1.92;1.00;;;;;;;;;;4993315;28;20065;-63
2022/01/09 03:27:09;;;;;;;3.63;1.40;;;;;;;;;;4993010;28;20401;-63
2022/01/09 03:29:38;;;;;;;3.45;1.25;;;;;;;;;;4993321;28;20069;-64
2022/01/09 03:32:07;;;;;;;3.08;1.35;;;;;;;;;;4993123;28;20061;-63
2022/01/09 03:34:34;;;;;;;2.33;1.00;;;;;;;;;;4993000;28;20507;-64
2022/01/09 03:37:01;;;;;;;3.80;1.30;;;;;;;;;;4992910;28;20046;-64
2022/01/09 03:39:28;;;;;;;2.50;1.35;;;;;;;;;;4992797;28;20488;-63
2022/01/09 03:41:58;;;;;;;2.42;1.05;;;;;;;;;;4993049;28;20420;-64
2022/01/09 03:44:25;;;;;;;2.25;1.00;;;;;;;;;;4992958;28;20399;-64
2022/01/09 03:46:53;;;;;;;3.45;1.13;;;;;;;;;;4992790;28;20054;-63
2022/01/09 03:49:20;;;;;;;2.83;1.05;;;;;;;;;;4993080;28;20508;-64
2022/01/09 03:51:50;;;;;;;2.22;0.90;;;;;;;;;;4992883;28;20065;-64
2022/01/09 03:54:17;;;;;;;1.80;0.93;;;;;;;;;;4992644;28;20145;-64
2022/01/09 03:56:44;;;;;;;1.85;0.98;;;;;;;;;;4992458;28;20050;-64
2022/01/09 03:59:11;;;;;;;2.92;1.23;;;;;;;;;;4992737;28;20050;-65
2022/01/09 04:01:38;;;;;;;3.22;1.20;;;;;;;;;;4992877;28;20495;-64
2022/01/09 04:04:06;;;;;;;2.72;1.20;;;;;;;;;;4992588;28;20388;-64
2022/01/09 04:06:33;;;;;;;2.95;1.02;;;;;;;;;;4992538;28;20492;-64
2022/01/09 04:09:07;;;;;;;2.85;1.10;;;;;;;;;;4992393;28;20507;-64
2022/01/09 04:11:39;;;;;;;2.53;0.90;;;;;;;;;;4992625;28;20058;-64
2022/01/09 04:14:07;;;;;;;4.38;1.10;;;;;;;;;;4992753;28;20062;-64
2022/01/09 04:16:34;;;;;;;2.72;1.10;;;;;;;;;;4993039;28;20415;-63
2022/01/09 04:19:01;;;;;;;2.40;1.00;;;;;;;;;;4992503;28;20058;-63
2022/01/09 04:21:29;;;;;;;2.72;1.00;;;;;;;;;;4992483;28;20499;-63
2022/01/09 04:23:56;;;;;;;2.08;1.10;;;;;;;;;;4992610;28;20101;-64
2022/01/09 04:26:23;;;;;;;2.33;0.90;;;;;;;;;;4992615;28;20058;-64
2022/01/09 04:28:50;;;;;;;2.80;0.90;;;;;;;;;;4992346;28;20050;-64
2022/01/09 04:31:17;;;;;;;4.18;1.13;;;;;;;;;;4992530;28;20054;-64
2022/01/09 04:33:44;;;;;;;2.55;1.00;;;;;;;;;;4992398;28;20507;-63
2022/01/09 04:36:10;;;;;;;1.67;0.93;;;;;;;;;;4992236;28;20069;-64
2022/01/09 04:38:39;;;;;;;1.60;0.80;;;;;;;;;;4992257;28;20058;-63
2022/01/09 04:41:06;;;;;;;3.55;1.02;;;;;;;;;;4992413;28;20483;-64
2022/01/09 04:43:33;;;;;;;4.00;1.00;;;;;;;;;;4992515;28;20503;-64
2022/01/09 04:46:00;;;;;;;2.17;0.90;;;;;;;;;;4992733;28;20055;-64
2022/01/09 04:48:27;;;;;;;3.10;1.30;;;;;;;;;;4992163;28;20597;-64
2022/01/09 04:50:54;;;;;;;2.17;0.75;;;;;;;;;;4992248;28;20514;-64
2022/01/09 04:53:21;;;;;;;2.58;0.80;;;;;;;;;;4992111;28;20054;-64
2022/01/09 04:55:50;;;;;;;4.63;1.05;;;;;;;;;;4992353;28;20057;-64
2022/01/09 04:58:17;;;;;;;2.55;0.70;;;;;;;;;;4992039;28;20153;-64
2022/01/09 05:00:45;;;;;;;1.90;0.80;;;;;;;;;;4991966;28;20057;-64
2022/01/09 05:03:13;;;;;;;1.17;0.60;;;;;;;;;;4992077;28;20238;-64
2022/01/09 05:05:41;;;;;;;2.42;0.77;;;;;;;;;;4992104;28;20070;-64
2022/01/09 05:08:08;;;;;;;2.55;0.80;;;;;;;;;;4992076;28;20488;-64
2022/01/09 05:10:35;;;;;;;1.75;0.70;;;;;;;;;;4993570;28;20058;-64
2022/01/09 05:13:03;;;;;;;2.10;0.85;;;;;;;;;;4995638;28;20054;-63
2022/01/09 05:15:30;;;;;;;1.83;0.70;;;;;;;;;;4995773;28;20058;-64
2022/01/09 05:18:00;;;;;;;2.33;0.80;;;;;;;;;;4995293;28;20086;-64
2022/01/09 05:20:27;;;;;;;2.47;1.10;;;;;;;;;;4995820;28;20531;-64
2022/01/09 05:22:54;;;;;;;4.93;1.00;;;;;;;;;;4995421;28;20443;-64
2022/01/09 05:25:21;;;;;;;1.85;0.95;;;;;;;;;;4995381;28;20054;-64
2022/01/09 05:27:49;;;;;;;3.92;0.70;;;;;;;;;;4995382;28;20050;-65
2022/01/09 05:30:17;;;;;;;1.48;0.50;;;;;;;;;;4995250;28;20058;-65
2022/01/09 05:32:44;;;;;;;1.85;0.63;;;;;;;;;;4995336;28;20046;-65
2022/01/09 05:35:12;;;;;;;0.90;0.50;;;;;;;;;;4995097;28;20058;-65
2022/01/09 05:37:39;;;;;;;1.40;0.60;;;;;;;;;;4995245;28;20050;-65
2022/01/09 05:40:07;;;;;;;1.60;0.60;;;;;;;;;;4995107;28;20053;-65
2022/01/09 05:42:34;;;;;;;1.23;0.60;;;;;;;;;;4995194;28;20050;-65
2022/01/09 05:45:02;;;;;;;0.70;0.60;;;;;;;;;;4994969;28;20408;-65
2022/01/09 05:47:30;;;;;;;1.45;0.50;;;;;;;;;;4995071;28;20096;-65
2022/01/09 05:49:57;;;;;;;1.13;0.50;;;;;;;;;;4995078;28;20054;-65
2022/01/09 05:52:24;;;;;;;0.60;0.40;;;;;;;;;;4994821;28;20050;-65
2022/01/09 05:54:51;;;;;;;0.98;0.60;;;;;;;;;;4994938;28;20058;-65
2022/01/09 05:57:18;;;;;;;0.80;0.40;;;;;;;;;;4994951;28;20054;-65
2022/01/09 05:59:45;;;;;;;1.08;0.60;;;;;;;;;;4995046;28;20528;-65
2022/01/09 06:02:12;;;;;;;1.05;0.55;;;;;;;;;;4994625;28;20058;-65
2022/01/09 06:04:40;;;;;;;0.50;0.35;;;;;;;;;;4994728;28;20050;-65
2022/01/09 06:07:07;;;;;;;0.68;0.43;;;;;;;;;;4994819;28;20050;-64
2022/01/09 06:09:34;;;;;;;0.47;0.30;;;;;;;;;;4994908;28;20080;-65
2022/01/09 06:12:01;;;;;;;0.82;0.47;;;;;;;;;;4994626;28;20057;-65
2022/01/09 06:14:28;;;;;;;0.73;0.40;;;;;;;;;;4994538;28;20522;-65
2022/01/09 06:16:55;;;;;;;0.45;0.30;;;;;;;;;;4994674;28;20145;-64
2022/01/09 06:19:21;;;;;;;0.98;0.80;;;;;;;;;;4994633;28;20414;-65
2022/01/09 06:21:50;;;;;;;0.82;0.50;;;;;;;;;;4993525;28;20455;-65
2022/01/09 06:24:16;;;;;;;1.08;0.40;;;;;;;;;;4994207;28;20046;-65
2022/01/09 06:26:44;;;;;;;1.48;0.40;;;;;;;;;;4994083;28;20057;-65
2022/01/09 06:29:12;;;;;;;0.60;0.30;;;;;;;;;;4994534;28;20058;-65
2022/01/09 06:31:39;;;;;;;0.47;0.30;;;;;;;;;;4994578;28;20591;-65
2022/01/09 06:34:06;;;;;;;2.33;0.40;;;;;;;;;;4994499;28;20491;-65
2022/01/09 06:36:33;;;;;;;1.02;0.43;;;;;;;;;;4993982;28;20046;-65
2022/01/09 06:39:01;;;;;;;1.40;0.40;;;;;;;;;;4994091;28;20065;-65
2022/01/09 06:41:28;;;;;;;0.75;0.40;;;;;;;;;;4993993;28;20050;-65
2022/01/09 06:43:55;;;;;;;1.58;0.40;;;;;;;;;;4994351;28;20088;-65
2022/01/09 06:46:22;;;;;;;1.00;0.40;;;;;;;;;;4993852;28;20094;-65
2022/01/09 06:48:49;;;;;;;0.82;0.50;;;;;;;;;;4993875;28;20086;-65
2022/01/09 06:51:16;;;;;;;0.98;0.50;;;;;;;;;;4994009;28;20058;-65
2022/01/09 06:53:42;;;;;;;0.40;0.40;;;;;;;;;;4993893;28;20081;-65
2022/01/09 06:56:11;;;;;;;0.45;0.30;;;;;;;;;;4993650;28;20108;-65
2022/01/09 06:58:38;;;;;;;0.30;0.30;;;;;;;;;;4993746;28;20504;-65
2022/01/09 07:01:05;;;;;;;0.65;0.40;;;;;;;;;;4993547;28;20053;-64
2022/01/09 07:03:32;;;;;;;0.57;0.30;;;;;;;;;;4993768;28;20053;-65
2022/01/09 07:05:59;;;;;;;0.73;0.40;;;;;;;;;;4993205;28;20070;-65
2022/01/09 07:08:27;;;;;;;0.45;0.40;;;;;;;;;;4993572;28;20057;-65
2022/01/09 07:10:54;;;;;;;0.35;0.35;;;;;;;;;;4993666;28;20046;-66
2022/01/09 07:13:22;;;;;;;0.30;0.30;;;;;;;;;;4993655;28;20058;-65
2022/01/09 07:15:49;;;;;;;0.57;0.30;;;;;;;;;;4993294;28;20046;-65
2022/01/09 07:18:16;;;;;;;0.40;0.30;;;;;;;;;;4993184;28;20057;-65
2022/01/09 07:20:43;;;;;;;1.40;0.40;;;;;;;;;;4993141;28;20058;-65
2022/01/09 07:23:10;;;;;;;0.73;0.40;;;;;;;;;;4993455;28;20411;-65
2022/01/09 07:25:37;;;;;;;0.40;0.28;;;;;;;;;;4993157;28;20050;-65
2022/01/09 07:28:04;;;;;;;0.93;0.30;;;;;;;;;;4993388;28;20050;-65
2022/01/09 07:30:32;;;;;;;0.28;0.28;;;;;;;;;;4993250;28;20050;-65
2022/01/09 07:33:00;;;;;;;0.60;0.40;;;;;;;;;;4992852;28;20046;-65
2022/01/09 07:35:27;;;;;;;0.40;0.40;;;;;;;;;;4992999;28;20050;-64
2022/01/09 07:37:54;;;;;;;0.73;0.30;;;;;;;;;;4993066;28;20061;-65
2022/01/09 07:40:21;;;;;;;0.20;0.20;;;;;;;;;;4992974;28;20050;-65
2022/01/09 07:42:48;;;;;;;0.20;0.20;;;;;;;;;;4992934;28;20058;-64
2022/01/09 07:45:16;;;;;;;0.30;0.30;;;;;;;;;;4992876;28;20138;-65
2022/01/09 07:47:44;;;;;;;0.40;0.22;;;;;;;;;;4992670;28;20057;-65
2022/01/09 07:50:11;;;;;;;0.30;0.30;;;;;;;;;;4992871;28;20057;-65
2022/01/09 07:52:39;;;;;;;0.43;0.32;;;;;;;;;;4992899;28;20054;-65
2022/01/09 07:55:08;;;;;;;0.55;0.30;;;;;;;;;;4992981;28;20137;-64
2022/01/09 07:57:35;;;;;;;0.60;0.30;;;;;;;;;;4992740;28;20042;-65
2022/01/09 08:00:03;;;;;;;0.70;0.40;;;;;;;;;;4992829;28;20050;-64
2022/01/09 08:02:30;;;;;;;0.63;0.30;;;;;;;;;;5004147;23;20096;-54
2022/01/09 08:04:58;;;;;;;0.50;0.40;;;;;;;;;;4996667;28;20051;-58
2022/01/09 08:07:25;;;;;;;0.95;0.43;;;;;;;;;;4996474;28;20054;-57
2022/01/09 08:09:52;;;;;;;1.08;0.70;;;;;;;;;;4997428;28;20050;-55
2022/01/09 08:12:19;;;;;;;0.55;0.30;;;;;;;;;;4996909;28;20050;-54
2022/01/09 08:14:46;;;;;;;1.75;0.50;;;;;;;;;;4996934;28;20062;-56
2022/01/09 08:17:13;;;;;;;0.50;0.47;;;;;;;;;;4996943;28;20443;-56
2022/01/09 08:19:41;;;;;;;0.75;0.50;;;;;;;;;;4996502;28;20057;-56
2022/01/09 08:22:10;;;;;;;0.47;0.45;;;;;;;;;;4997093;28;20054;-57
2022/01/09 08:24:37;;;;;;;1.35;0.50;;;;;;;;;;4996910;28;20047;-54
2022/01/09 08:27:05;;;;;;;0.68;0.50;;;;;;;;;;4996117;28;20134;-54
2022/01/09 08:29:32;;;;;;;0.52;0.30;;;;;;;;;;4996314;28;20042;-59
2022/01/09 08:31:59;;;;;;;0.77;0.50;;;;;;;;;;4996473;28;20065;-53
2022/01/09 08:34:26;;;;;;;0.38;0.38;;;;;;;;;;4997068;28;20058;-57
2022/01/09 08:36:53;;;;;;;1.17;0.50;;;;;;;;;;4996512;28;20050;-55
2022/01/09 08:39:21;;;;;;;1.83;0.57;;;;;;;;;;4996603;28;20069;-56
2022/01/09 08:41:48;;;;;;;1.80;0.60;;;;;;;;;;4996787;28;20054;-57
2022/01/09 08:44:14;;;;;;;2.47;1.05;;;;;;;;;;4996517;28;20500;-56
2022/01/09 08:46:41;;;;;;;0.82;0.50;;;;;;;;;;4998877;28;20054;-55
2022/01/09 08:49:08;;;;;;;0.88;0.40;;;;;;;;;;5000169;28;20085;-56
2022/01/09 08:51:35;;;;;;;0.55;0.40;;;;;;;;;;4999955;28;20423;-55
2022/01/09 08:54:02;;;;;;;0.40;0.40;;;;;;;;;;4999607;28;20050;-54
2022/01/09 08:56:32;;;;;;;0.77;0.45;;;;;;;;;;4999572;28;20411;-56
2022/01/09 08:59:01;;;;;;;1.08;0.50;;;;;;;;;;4999900;28;20078;-54
2022/01/09 09:01:28;;;;;;;0.93;0.50;;;;;;;;;;4999240;28;20051;-57
2022/01/09 09:03:54;;;;;;;0.60;0.40;;;;;;;;;;5000132;28;20046;-56
2022/01/09 09:06:21;;;;;;;1.27;0.52;;;;;;;;;;5000198;28;20054;-56
2022/01/09 09:08:48;;;;;;;2.92;0.60;;;;;;;;;;4999290;28;20058;-56
2022/01/09 09:11:15;;;;;;;0.85;0.40;;;;;;;;;;4999579;28;20050;-54
2022/01/09 09:13:43;;;;;;;1.58;0.50;;;;;;;;;;4999814;28;20054;-53
2022/01/09 09:16:10;;;;;;;0.70;0.40;;;;;;;;;;4996292;28;20130;-59
2022/01/09 09:18:37;;;;;;;0.95;0.38;;;;;;;;;;4995735;28;20057;-57
2022/01/09 09:21:04;;;;;;;0.65;0.50;;;;;;;;;;4995876;28;20050;-57
2022/01/09 09:23:31;;;;;;;2.63;0.43;;;;;;;;;;4995789;28;20050;-58
2022/01/09 09:25:58;;;;;;;1.05;0.50;;;;;;;;;;4995586;28;20054;-58
2022/01/09 09:28:25;;;;;;;1.15;0.40;;;;;;;;;;4995214;28;20046;-55
2022/01/09 09:30:53;;;;;;;2.65;0.70;;;;;;;;;;4995480;28;20507;-58
2022/01/09 09:33:20;;;;;;;0.65;0.40;;;;;;;;;;4995333;28;20389;-59
2022/01/09 09:35:47;;;;;;;0.68;0.40;;;;;;;;;;4995560;28;20054;-58
2022/01/09 09:38:14;;;;;;;1.23;0.43;;;;;;;;;;4990082;28;20055;-59
2022/01/09 09:40:41;;;;;;;1.08;0.60;;;;;;;;;;4975705;28;20057;-59
2022/01/09 09:43:08;;;;;;;1.25;0.50;;;;;;;;;;4975571;28;20059;-58
2022/01/09 09:45:35;;;;;;;0.85;0.60;;;;;;;;;;4975846;28;20058;-57
2022/01/09 09:48:03;;;;;;;1.38;0.57;;;;;;;;;;4975318;28;20051;-55
2022/01/09 09:50:30;;;;;;;2.03;0.75;;;;;;;;;;4975713;28;20054;-58
2022/01/09 09:52:58;;;;;;;1.15;0.50;;;;;;;;;;4975496;28;20067;-56
2022/01/09 09:55:25;;;;;;;1.10;0.68;;;;;;;;;;4975952;28;20419;-58
2022/01/09 09:57:52;;;;;;;1.85;0.50;;;;;;;;;;4975594;28;20075;-58
2022/01/09 10:00:21;;;;;;;1.50;0.60;;;;;;;;;;4975552;28;20051;-58
2022/01/09 10:02:50;;;;;;;1.15;0.70;;;;;;;;;;4975105;28;20079;-57
2022/01/09 10:05:20;;;;;;;1.45;0.60;;;;;;;;;;4975632;28;20088;-58
2022/01/09 10:07:47;;;;;;;2.17;0.77;;;;;;;;;;4975370;28;20063;-57
2022/01/09 10:10:16;;;;;;;1.25;0.50;;;;;;;;;;4975444;28;20070;-56
2022/01/09 10:12:45;;;;;;;0.90;0.60;;;;;;;;;;4975997;28;20086;-58
2022/01/09 10:15:14;;;;;;;2.40;0.73;;;;;;;;;;4983226;28;20443;-60
2022/01/09 10:17:43;;;;;;;1.15;0.75;;;;;;;;;;4983219;28;20057;-57
2022/01/09 10:20:13;;;;;;;2.15;0.60;;;;;;;;;;4985854;28;20054;-57
2022/01/09 10:22:44;;;;;;;2.75;0.93;;;;;;;;;;4978161;28;20538;-57
2022/01/09 10:25:23;;;;;;;1.85;0.82;;;;;;;;;;4975424;28;20057;-57
2022/01/09 10:27:51;;;;;;;1.77;0.70;;;;;;;;;;4975134;28;20060;-58
2022/01/09 10:30:22;;;;;;;3.65;1.40;;;;;;;;;;4975301;28;20057;-58
2022/01/09 10:32:55;;;;;;;3.10;1.23;;;;;;;;;;4985575;28;20507;-55
2022/01/09 10:35:24;;;;;;;2.05;0.90;;;;;;;;;;4985153;28;20046;-55
2022/01/09 10:38:11;;;;;;;3.25;0.98;;;;;;;;;;4983131;28;20424;-57
2022/01/09 10:40:38;;;;;;;1.85;0.80;;;;;;;;;;4985534;28;20475;-58
2022/01/09 10:43:09;;;;;;;2.05;0.90;;;;;;;;;;4985215;28;20501;-58
2022/01/09 10:45:39;;;;;;;0.90;0.70;;;;;;;;;;4984344;28;20416;-58
2022/01/09 10:48:08;;;;;;;2.13;1.02;;;;;;;;;;4983255;28;20447;-58
2022/01/09 10:50:38;;;;;;;2.25;0.80;;;;;;;;;;4989190;28;20046;-56
2022/01/09 10:53:37;;;;;;;1.77;0.88;;;;;;;;;;4994512;28;20085;-55
2022/01/09 10:56:09;;;;;;;2.83;0.85;;;;;;;;;;4972896;28;20051;-59
2022/01/09 10:58:38;;;;;;;3.17;0.90;;;;;;;;;;4990011;28;20058;-58
2022/01/09 11:01:24;;;;;;;3.47;1.15;;;;;;;;;;4994623;28;20054;-57
2022/01/09 11:03:52;;;;;;;3.35;1.20;;;;;;;;;;4994534;28;20054;-58
2022/01/09 11:06:21;;;;;;;2.78;1.10;;;;;;;;;;4994315;28;20056;-58
2022/01/09 11:08:50;;;;;;;2.25;0.88;;;;;;;;;;4993753;28;20086;-57
2022/01/09 11:11:27;;;;;;;1.67;0.80;;;;;;;;;;4994199;28;20054;-58
2022/01/09 11:13:55;;;;;;;3.60;0.85;;;;;;;;;;4983929;28;20054;-57
2022/01/09 11:16:34;;;;;;;4.53;1.23;;;;;;;;;;4974218;28;20154;-54
2022/01/09 11:19:07;;;;;;;2.20;0.80;;;;;;;;;;4974003;28;20051;-56
2022/01/09 11:21:34;;;;;;;2.88;0.70;;;;;;;;;;4974103;28;20062;-54
2022/01/09 11:24:24;;;;;;;2.30;0.90;;;;;;;;;;4974350;28;20042;-59
2022/01/09 11:26:55;;;;;;;3.67;0.97;;;;;;;;;;4974636;28;20499;-57
2022/01/09 11:29:37;;;;;;;1.73;0.93;;;;;;;;;;4974248;28;20065;-56
2022/01/09 11:32:13;;;;;;;2.25;1.00;;;;;;;;;;4974322;28;20488;-57
2022/01/09 11:34:51;;;;;;;3.17;0.98;;;;;;;;;;4974185;28;20058;-58
2022/01/09 11:37:27;;;;;;;3.85;1.10;;;;;;;;;;4973976;28;20412;-59
2022/01/09 11:39:56;;;;;;;2.55;0.80;;;;;;;;;;4973997;28;20050;-58
2022/01/09 11:42:23;;;;;;;4.43;1.00;;;;;;;;;;4973931;28;20097;-58
2022/01/09 11:44:53;;;;;;;3.97;1.02;;;;;;;;;;4974363;28;20055;-58
2022/01/09 11:47:21;;;;;;;1.83;1.00;;;;;;;;;;4974184;28;20047;-59
2022/01/09 11:50:09;;;;;;;2.92;1.08;;;;;;;;;;4974071;28;20051;-57
2022/01/09 11:53:01;;;;;;;2.63;0.93;;;;;;;;;;4974686;28;20105;-56
2022/01/09 11:55:37;;;;;;;3.47;1.30;;;;;;;;;;4973973;28;20050;-58
2022/01/09 11:58:09;;;;;;;2.97;1.30;;;;;;;;;;4973213;28;20059;-58
2022/01/09 12:00:38;;;;;;;3.45;0.93;;;;;;;;;;4973997;28;20118;-59
2022/01/09 12:03:34;;;;;;;2.83;1.00;;;;;;;;;;4973832;28;20055;-57
2022/01/09 12:06:02;;;;;;;5.43;1.80;;;;;;;;;;4974241;28;20058;-57
2022/01/09 12:09:07;;;;;;;4.15;0.93;;;;;;;;;;4973802;28;20133;-56
2022/01/09 12:12:11;;;;;;;6.57;1.40;;;;;;;;;;4973548;28;20055;-58
2022/01/09 12:15:01;;;;;;;3.63;1.13;;;;;;;;;;4973740;28;20492;-57
2022/01/09 12:17:42;;;;;;;4.32;1.02;;;;;;;;;;4973745;28;20062;-58
2022/01/09 12:20:10;;;;;;;;;;;;;;;;;;4974873;28;20058;-62
2022/01/09 12:23:01;;;;;;;2.97;0.95;;;;;;;;;;4977913;28;19922;-61
2022/01/09 12:25:50;;;;;;;;;;;;;;;;;;4978208;28;20047;-64
2022/01/09 12:28:20;;;;;;;3.47;1.13;;;;;;;;;;4977881;28;19922;-61
2022/01/09 12:30:52;;;;;;;5.70;1.50;;;;;;;;;;4978169;28;20488;-62
2022/01/09 12:33:45;;;;;;;2.20;0.90;;;;;;;;;;4977813;28;20434;-60
2022/01/09 12:36:14;;;;;;;5.20;1.67;;;;;;;;;;4977782;28;20086;-71
2022/01/09 12:38:42;;;;;;;3.22;0.77;;;;;;;;;;4977518;28;20519;-61
2022/01/09 12:41:12;;;;;;;2.53;0.88;;;;;;;;;;4977528;28;20554;-59
2022/01/09 12:43:41;;;;;;;2.08;0.90;;;;;;;;;;4977374;28;20051;-58
2022/01/09 12:46:11;;;;;;;3.33;1.08;;;;;;;;;;4977717;28;20078;-59
2022/01/09 12:48:40;;;;;;;6.85;1.38;;;;;;;;;;4977295;28;20047;-58
2022/01/09 12:51:13;;;;;;;7.13;1.38;;;;;;;;;;4977402;28;20050;-58
2022/01/09 12:53:42;;;;;;;4.13;1.10;;;;;;;;;;4977751;28;20105;-62
2022/01/09 12:56:12;;;;;;;4.88;1.92;;;;;;;;;;4977191;28;20055;-60
2022/01/09 12:58:41;;;;;;;5.63;1.70;;;;;;;;;;4977111;28;20046;-61
2022/01/09 13:01:19;;;;;;;5.13;1.52;;;;;;;;;;4977433;28;20055;-58
2022/01/09 13:03:48;;;;;;;3.97;1.15;;;;;;;;;;4976949;28;20054;-59
2022/01/09 13:06:17;;;;;;;3.30;1.30;;;;;;;;;;4977033;28;20058;-58
2022/01/09 13:08:46;;;;;;;4.32;0.98;;;;;;;;;;4977095;28;20051;-59
2022/01/09 13:11:15;;;;;;;7.18;2.20;;;;;;;;;;4976908;28;20111;-57
2022/01/09 13:13:45;;;;;;;5.47;1.95;;;;;;;;;;4976603;28;20066;-58
2022/01/09 13:16:13;;;;;;;5.53;1.20;;;;;;;;;;4976376;28;20062;-59
2022/01/09 13:18:43;;;;;;;4.15;0.90;;;;;;;;;;4976652;28;20058;-57
2022/01/09 13:21:19;;;;;;;2.50;0.90;;;;;;;;;;4976463;28;20294;-57
2022/01/09 13:24:07;;;;;;;3.35;1.58;;;;;;;;;;4976278;28;20102;-58
2022/01/09 13:26:37;;;;;;;2.70;1.42;;;;;;;;;;4976596;28;20066;-59
2022/01/09 13:29:08;;;;;;;3.00;0.88;;;;;;;;;;4976702;28;20054;-57
2022/01/09 13:31:46;;;;;;;4.68;1.20;;;;;;;;;;4975846;28;20050;-56
2022/01/09 13:34:15;;;;;;;7.95;2.05;;;;;;;;;;4976196;28;20079;-58
2022/01/09 13:36:45;;;;;;;3.35;1.23;;;;;;;;;;4975825;28;20062;-55
2022/01/09 13:39:17;;;;;;;4.05;1.30;;;;;;;;;;4976021;28;20058;-56
2022/01/09 13:41:47;;;;;;;3.53;1.38;;;;;;;;;;4976444;28;20142;-57
2022/01/09 13:44:15;;;;;;;3.93;1.07;;;;;;;;;;4976279;28;20515;-58
2022/01/09 13:46:43;;;;;;;2.20;0.98;;;;;;;;;;4975661;28;20523;-55
2022/01/09 13:49:15;;;;;;;4.13;1.08;;;;;;;;;;4975792;28;20096;-56
2022/01/09 13:51:48;;;;;;;4.80;1.27;;;;;;;;;;4975734;28;20062;-58
2022/01/09 13:54:18;;;;;;;5.68;1.30;;;;;;;;;;4975601;28;20042;-60
2022/01/09 13:56:45;;;;;;;3.85;1.25;;;;;;;;;;4975505;28;20412;-58
2022/01/09 13:59:12;;;;;;;2.75;1.10;;;;;;;;;;4976004;28;20504;-57
2022/01/09 14:01:46;;;;;;;2.45;1.00;;;;;;;;;;4976241;28;20515;-57
2022/01/09 14:04:15;;;;;;;3.35;0.80;;;;;;;;;;5008468;23;20099;-62
2022/01/09 14:06:42;;;;;;;3.78;1.10;;;;;;;;;;5034181;28;20049;-61
2022/01/09 14:09:09;;;;;;;4.75;1.20;;;;;;;;;;5034011;28;20049;-63
2022/01/09 14:11:36;;;;;;;4.65;1.27;;;;;;;;;;5034033;28;20057;-62
2022/01/09 14:14:03;;;;;;;4.63;1.10;;;;;;;;;;5033036;28;20457;-63
2022/01/09 14:16:41;;;;;;;4.72;1.08;;;;;;;;;;5015258;28;20462;-62
2022/01/09 14:19:08;;;;;;;2.63;0.85;;;;;;;;;;5014673;28;20502;-63
2022/01/09 14:21:52;;;;;;;2.70;1.05;;;;;;;;;;5014156;28;20537;-63
2022/01/09 14:24:19;;;;;;;2.50;1.08;;;;;;;;;;5014030;28;20541;-63
2022/01/09 14:26:57;;;;;;;3.80;1.05;;;;;;;;;;5013907;28;20057;-63
2022/01/09 14:29:36;;;;;;;3.20;1.08;;;;;;;;;;5014164;28;20096;-63
2022/01/09 14:32:05;;;;;;;2.95;0.88;;;;;;;;;;5023294;28;20073;-63
2022/01/09 14:34:41;;;;;;;3.35;1.20;;;;;;;;;;5025425;28;20061;-63
2022/01/09 14:37:10;;;;;;;4.03;0.98;;;;;;;;;;5023585;28;20084;-63
2022/01/09 14:39:37;;;;;;;3.20;1.05;;;;;;;;;;5013660;28;20050;-62
2022/01/09 14:42:06;;;;;;;5.25;1.45;;;;;;;;;;5018975;28;20073;-63
2022/01/09 14:44:34;;;;;;;3.85;1.30;;;;;;;;;;5015485;28;20402;-63
2022/01/09 14:47:01;;;;;;;6.05;1.20;;;;;;;;;;5017601;28;20069;-64
2022/01/09 14:49:29;;;;;;;3.17;1.42;;;;;;;;;;5033645;28;20045;-64
2022/01/09 14:51:57;;;;;;;3.15;0.98;;;;;;;;;;5019733;28;20476;-64
2022/01/09 14:54:24;;;;;;;3.58;1.33;;;;;;;;;;5023624;28;20426;-64